createdAt,value
2023-09-08T00:02:28.936Z,17.00
2023-09-08T00:04:56.097Z,17.00
2023-09-08T00:07:22.805Z,17.00
2023-09-08T00:09:50.061Z,17.00
2023-09-08T00:12:16.835Z,17.00
2023-09-08T00:14:44.059Z,17.00
2023-09-08T00:17:10.812Z,17.00
2023-09-08T00:19:37.615Z,17.00
2023-09-08T00:22:07.212Z,17.10
2023-09-08T00:24:34.962Z,17.00
2023-09-08T00:27:01.727Z,17.00
2023-09-08T00:29:28.723Z,17.00
2023-09-08T00:31:55.559Z,17.10
2023-09-08T00:34:22.242Z,17.00
2023-09-08T00:36:48.874Z,17.00
2023-09-08T00:39:15.501Z,17.00
2023-09-08T00:41:42.075Z,17.00
2023-09-08T00:44:09.984Z,17.00
2023-09-08T00:46:36.957Z,16.90
2023-09-08T00:49:03.927Z,17.00
2023-09-08T00:51:30.599Z,17.00
2023-09-08T00:53:57.387Z,17.00
2023-09-08T00:56:25.132Z,17.00
2023-09-08T00:58:51.848Z,17.00
2023-09-08T01:01:18.577Z,17.00
2023-09-08T01:03:45.454Z,17.00
2023-09-08T01:06:12.766Z,17.00
2023-09-08T01:08:39.525Z,17.00
2023-09-08T01:11:07.255Z,17.00
2023-09-08T01:13:33.879Z,17.00
2023-09-08T01:16:00.541Z,16.90
2023-09-08T01:18:27.306Z,16.90
2023-09-08T01:21:19.301Z,16.90
2023-09-08T01:24:04.470Z,16.90
2023-09-08T01:26:36.467Z,16.90
2023-09-08T01:29:05.875Z,16.80
2023-09-08T01:31:32.713Z,16.80
2023-09-08T01:34:00.957Z,16.70
2023-09-08T01:36:27.778Z,16.70
2023-09-08T01:38:54.433Z,16.70
2023-09-08T01:41:21.043Z,16.70
2023-09-08T01:43:47.654Z,16.70
2023-09-08T01:46:14.287Z,16.80
2023-09-08T01:48:40.921Z,16.80
2023-09-08T01:51:07.589Z,16.70
2023-09-08T01:53:34.578Z,16.70
2023-09-08T01:56:01.244Z,16.70
2023-09-08T01:58:28.023Z,16.60
2023-09-08T02:00:55.246Z,16.60
2023-09-08T02:03:21.865Z,16.60
2023-09-08T02:05:48.536Z,16.70
2023-09-08T02:08:15.834Z,16.70
2023-09-08T02:10:42.505Z,16.70
2023-09-08T02:13:09.278Z,16.60
2023-09-08T02:15:37.612Z,16.70
2023-09-08T02:18:04.775Z,16.70
2023-09-08T02:20:31.394Z,16.60
2023-09-08T02:23:04.558Z,16.60
2023-09-08T02:25:31.238Z,16.60
2023-09-08T02:27:57.863Z,16.60
2023-09-08T02:30:24.619Z,16.50
2023-09-08T02:32:51.317Z,16.50
2023-09-08T02:35:18.055Z,16.50
2023-09-08T02:37:44.721Z,16.40
2023-09-08T02:40:11.414Z,16.40
2023-09-08T02:42:38.031Z,16.40
2023-09-08T02:45:05.044Z,16.30
2023-09-08T02:47:31.663Z,16.30
2023-09-08T02:49:58.279Z,16.20
2023-09-08T02:52:24.888Z,16.20
2023-09-08T02:54:51.544Z,16.10
2023-09-08T02:57:18.222Z,16.10
2023-09-08T02:59:50.854Z,16.00
2023-09-08T03:02:17.604Z,16.00
2023-09-08T03:04:44.330Z,16.00
2023-09-08T03:07:10.923Z,15.90
2023-09-08T03:09:37.750Z,15.90
2023-09-08T03:12:04.779Z,15.90
2023-09-08T03:14:31.445Z,15.90
2023-09-08T03:16:58.092Z,15.80
2023-09-08T03:19:24.721Z,15.80
2023-09-08T03:21:51.346Z,15.70
2023-09-08T03:24:17.968Z,15.70
2023-09-08T03:26:44.681Z,15.70
2023-09-08T03:29:11.795Z,15.70
2023-09-08T03:31:38.569Z,15.70
2023-09-08T03:34:05.444Z,15.70
2023-09-08T03:36:32.472Z,15.60
2023-09-08T03:38:59.215Z,15.70
2023-09-08T03:41:25.952Z,15.70
2023-09-08T03:43:52.587Z,15.70
2023-09-08T03:46:19.546Z,15.60
2023-09-08T03:48:46.211Z,15.60
2023-09-08T03:51:12.875Z,15.60
2023-09-08T03:53:39.717Z,15.50
2023-09-08T03:56:06.589Z,15.50
2023-09-08T03:58:33.194Z,15.50
2023-09-08T04:01:00.283Z,15.40
2023-09-08T04:03:27.102Z,15.40
2023-09-08T04:05:54.181Z,15.40
2023-09-08T04:08:20.800Z,15.30
2023-09-08T04:10:47.399Z,15.20
2023-09-08T04:13:14.011Z,15.20
2023-09-08T04:15:40.654Z,15.20
2023-09-08T04:18:07.337Z,15.10
2023-09-08T04:20:34.821Z,15.10
2023-09-08T04:23:01.520Z,15.10
2023-09-08T04:25:28.187Z,15.00
2023-09-08T04:27:54.815Z,15.00
2023-09-08T04:30:22.524Z,14.90
2023-09-08T04:32:49.283Z,14.80
2023-09-08T04:35:15.978Z,14.80
2023-09-08T04:37:42.630Z,14.80
2023-09-08T04:40:09.547Z,14.80
2023-09-08T04:42:36.243Z,14.80
2023-09-08T04:45:03.168Z,14.70
2023-09-08T04:47:29.897Z,14.70
2023-09-08T04:49:56.547Z,14.70
2023-09-08T04:52:23.218Z,14.70
2023-09-08T04:54:49.836Z,14.80
2023-09-08T04:57:23.357Z,14.80
2023-09-08T04:59:50.831Z,14.80
2023-09-08T05:02:19.215Z,14.80
2023-09-08T05:04:45.915Z,14.70
2023-09-08T05:07:14.220Z,14.80
2023-09-08T05:09:40.878Z,14.80
2023-09-08T05:12:07.848Z,14.80
2023-09-08T05:14:34.662Z,14.80
2023-09-08T05:17:01.302Z,14.80
2023-09-08T05:19:27.972Z,14.80
2023-09-08T05:21:57.498Z,14.90
2023-09-08T05:24:24.192Z,15.00
2023-09-08T05:26:50.856Z,15.00
2023-09-08T05:29:17.554Z,15.10
2023-09-08T05:31:44.647Z,15.00
2023-09-08T05:34:11.488Z,15.10
2023-09-08T05:36:39.342Z,15.20
2023-09-08T05:39:06.391Z,15.20
2023-09-08T05:41:34.697Z,15.30
2023-09-08T05:44:01.959Z,15.40
2023-09-08T05:46:28.779Z,15.40
2023-09-08T05:48:55.606Z,15.50
2023-09-08T05:51:23.538Z,15.50
2023-09-08T05:53:50.301Z,15.60
2023-09-08T05:56:18.883Z,15.90
2023-09-08T05:58:45.575Z,16.40
2023-09-08T06:01:12.267Z,17.40
2023-09-08T06:03:39.096Z,18.20
2023-09-08T06:06:05.853Z,19.20
2023-09-08T06:08:32.549Z,20.30
2023-09-08T06:10:59.247Z,20.80
2023-09-08T06:13:26.748Z,21.00
2023-09-08T06:15:53.380Z,21.60
2023-09-08T06:18:20.051Z,22.40
2023-09-08T06:20:49.902Z,23.00
2023-09-08T06:23:16.673Z,23.80
2023-09-08T06:25:43.391Z,24.90
2023-09-08T06:28:10.044Z,26.10
2023-09-08T06:30:36.698Z,27.00
2023-09-08T06:33:03.592Z,27.90
2023-09-08T06:35:31.450Z,28.40
2023-09-08T06:37:58.897Z,28.80
2023-09-08T06:40:25.783Z,29.40
2023-09-08T06:42:52.537Z,29.60
2023-09-08T06:45:19.408Z,30.10
2023-09-08T06:47:46.483Z,30.60
2023-09-08T06:50:13.373Z,30.70
2023-09-08T06:52:40.067Z,31.30
2023-09-08T06:55:07.215Z,31.90
2023-09-08T06:57:33.960Z,32.50
2023-09-08T07:00:00.636Z,33.10
2023-09-08T07:02:27.507Z,33.70
2023-09-08T07:04:54.343Z,33.90
2023-09-08T07:07:21.502Z,33.80
2023-09-08T07:09:48.703Z,33.90
2023-09-08T07:12:15.420Z,33.80
2023-09-08T07:14:42.054Z,34.20
2023-09-08T07:17:08.799Z,34.60
2023-09-08T07:19:35.570Z,35.20
2023-09-08T07:22:02.245Z,36.10
2023-09-08T07:24:28.902Z,37.00
2023-09-08T07:26:55.494Z,37.70
2023-09-08T07:29:22.124Z,38.10
2023-09-08T07:31:48.772Z,38.60
2023-09-08T07:34:15.405Z,38.80
2023-09-08T07:36:42.033Z,38.90
2023-09-08T07:39:08.742Z,39.20
2023-09-08T07:41:35.939Z,39.10
2023-09-08T07:44:02.727Z,38.80
2023-09-08T07:46:29.615Z,39.20
2023-09-08T07:48:56.596Z,39.30
2023-09-08T07:51:23.307Z,39.60
2023-09-08T07:53:49.970Z,39.90
2023-09-08T07:56:16.666Z,40.50
2023-09-08T07:58:43.546Z,41.00
2023-09-08T08:01:10.560Z,41.50
2023-09-08T08:03:37.445Z,41.60
2023-09-08T08:06:04.314Z,41.60
2023-09-08T08:08:31.573Z,41.70
2023-09-08T08:10:58.510Z,41.90
2023-09-08T08:13:25.398Z,41.90
2023-09-08T08:15:52.176Z,42.00
2023-09-08T08:18:19.028Z,42.00
2023-09-08T08:20:45.867Z,41.70
2023-09-08T08:23:12.687Z,41.80
2023-09-08T08:25:39.378Z,41.90
2023-09-08T08:28:06.183Z,41.40
2023-09-08T08:30:33.615Z,41.90
2023-09-08T08:33:00.336Z,42.20
2023-09-08T08:35:27.086Z,42.20
2023-09-08T08:37:53.758Z,42.80
2023-09-08T08:40:20.675Z,42.90
2023-09-08T08:42:47.605Z,42.60
2023-09-08T08:45:17.215Z,42.50
2023-09-08T08:47:44.503Z,42.70
2023-09-08T08:50:12.119Z,42.80
2023-09-08T08:52:39.643Z,42.80
2023-09-08T08:55:07.129Z,43.40
2023-09-08T08:57:34.316Z,43.90
2023-09-08T09:00:09.866Z,43.20
2023-09-08T09:02:40.147Z,43.20
2023-09-08T09:05:08.177Z,43.90
2023-09-08T09:07:34.972Z,43.70
2023-09-08T09:10:02.198Z,43.50
2023-09-08T09:12:28.872Z,43.20
2023-09-08T09:14:55.656Z,43.80
2023-09-08T09:17:22.508Z,44.50
2023-09-08T09:19:49.190Z,44.80
2023-09-08T09:22:20.477Z,45.00
2023-09-08T09:24:47.583Z,44.30
2023-09-08T09:27:14.661Z,44.50
2023-09-08T09:29:49.405Z,43.70
2023-09-08T09:32:17.437Z,43.70
2023-09-08T09:34:54.252Z,43.70
2023-09-08T09:37:21.296Z,44.10
2023-09-08T09:39:52.759Z,43.90
2023-09-08T09:42:20.561Z,44.40
2023-09-08T09:44:49.400Z,43.90
2023-09-08T09:47:17.269Z,44.30
2023-09-08T09:49:45.220Z,44.00
2023-09-08T09:52:21.134Z,43.20
2023-09-08T09:54:49.010Z,42.50
2023-09-08T09:57:15.802Z,42.50
2023-09-08T09:59:42.893Z,43.10
2023-09-08T10:02:14.689Z,43.60
2023-09-08T10:04:42.278Z,44.30
2023-09-08T10:07:09.699Z,45.00
2023-09-08T10:09:39.527Z,45.20
2023-09-08T10:12:06.819Z,45.90
2023-09-08T10:14:36.915Z,46.10
2023-09-08T10:17:06.906Z,46.10
2023-09-08T10:19:37.547Z,46.50
2023-09-08T10:22:05.297Z,46.10
2023-09-08T10:24:35.613Z,46.10
2023-09-08T10:27:13.002Z,46.60
2023-09-08T10:29:40.613Z,47.20
2023-09-08T10:32:09.988Z,47.50
2023-09-08T10:34:37.932Z,47.50
2023-09-08T10:37:18.287Z,46.50
2023-09-08T10:39:44.919Z,46.60
2023-09-08T10:42:17.747Z,47.10
2023-09-08T10:44:50.811Z,46.40
2023-09-08T10:47:31.137Z,46.50
2023-09-08T10:50:00.747Z,46.50
2023-09-08T10:52:28.248Z,46.80
2023-09-08T10:54:56.651Z,46.70
2023-09-08T10:57:25.514Z,46.20
2023-09-08T11:00:01.428Z,44.90
2023-09-08T11:02:44.106Z,44.60
2023-09-08T11:05:14.238Z,45.20
2023-09-08T11:07:42.448Z,45.50
2023-09-08T11:10:10.383Z,44.90
2023-09-08T11:12:37.856Z,44.40
2023-09-08T11:15:06.504Z,44.20
2023-09-08T11:17:35.350Z,44.30
2023-09-08T11:20:09.386Z,43.80
2023-09-08T11:22:36.809Z,43.60
2023-09-08T11:25:07.014Z,42.60
2023-09-08T11:27:33.719Z,43.00
2023-09-08T11:30:00.720Z,42.60
2023-09-08T11:32:33.744Z,42.20
2023-09-08T11:35:10.775Z,42.00
2023-09-08T11:37:43.556Z,40.60
2023-09-08T11:40:13.220Z,39.40
2023-09-08T11:42:45.364Z,39.10
2023-09-08T11:45:24.341Z,37.70
2023-09-08T11:47:51.337Z,37.40
2023-09-08T11:50:20.131Z,37.10
2023-09-08T11:52:49.054Z,36.30
2023-09-08T11:55:16.674Z,36.30
2023-09-08T11:57:45.244Z,36.70
2023-09-08T12:00:17.440Z,37.10
2023-09-08T12:02:44.776Z,37.10
2023-09-08T12:05:22.258Z,36.20
2023-09-08T12:08:07.370Z,35.60
2023-09-08T12:10:41.503Z,35.60
2023-09-08T12:13:09.814Z,35.50
2023-09-08T12:15:38.621Z,34.90
2023-09-08T12:18:10.825Z,35.10
2023-09-08T12:20:38.973Z,35.40
2023-09-08T12:23:08.720Z,35.80
2023-09-08T12:25:44.906Z,36.10
2023-09-08T12:28:11.725Z,35.50
2023-09-08T12:30:39.584Z,35.00
2023-09-08T12:33:06.518Z,34.70
2023-09-08T12:35:33.564Z,34.50
2023-09-08T12:38:02.058Z,34.10
2023-09-08T12:40:30.287Z,34.00
2023-09-08T12:43:03.942Z,33.50
2023-09-08T12:45:41.584Z,33.30
2023-09-08T12:48:08.454Z,33.00
2023-09-08T12:50:35.153Z,33.10
2023-09-08T12:53:01.787Z,33.20
2023-09-08T12:55:28.355Z,33.30
2023-09-08T12:57:56.126Z,33.60
2023-09-08T13:00:26.743Z,33.90
2023-09-08T13:02:53.511Z,33.70
2023-09-08T13:05:20.230Z,33.00
2023-09-08T13:07:46.854Z,33.00
2023-09-08T13:10:13.562Z,33.10
2023-09-08T13:12:40.611Z,33.30
2023-09-08T13:15:08.061Z,33.30
2023-09-08T13:17:34.772Z,33.30
2023-09-08T13:20:02.019Z,33.20
2023-09-08T13:22:28.672Z,33.20
2023-09-08T13:24:55.935Z,33.10
2023-09-08T13:27:22.515Z,33.00
2023-09-08T13:29:49.598Z,33.00
2023-09-08T13:32:16.450Z,33.10
2023-09-08T13:34:44.581Z,32.90
2023-09-08T13:37:11.281Z,32.60
2023-09-08T13:39:38.295Z,32.40
2023-09-08T13:42:05.205Z,32.20
2023-09-08T13:44:32.007Z,32.10
2023-09-08T13:46:58.976Z,31.90
2023-09-08T13:49:27.862Z,32.10
2023-09-08T13:51:57.189Z,32.30
2023-09-08T13:54:25.169Z,32.00
2023-09-08T13:57:01.661Z,31.80
2023-09-08T13:59:34.867Z,31.70
2023-09-08T14:02:33.472Z,31.70
2023-09-08T14:04:55.236Z,31.70
2023-09-08T14:09:55.465Z,31.70
2023-09-08T14:12:34.695Z,31.70
2023-09-08T14:15:03.191Z,31.60
2023-09-08T14:17:29.891Z,31.50
2023-09-08T14:19:56.892Z,31.40
2023-09-08T14:22:23.572Z,31.30
2023-09-08T14:24:50.179Z,31.40
2023-09-08T14:27:16.836Z,31.20
2023-09-08T14:29:43.440Z,31.20
2023-09-08T14:32:10.053Z,31.30
2023-09-08T14:34:36.682Z,31.30
2023-09-08T14:37:05.074Z,31.20
2023-09-08T14:39:32.389Z,31.20
2023-09-08T14:41:59.015Z,31.10
2023-09-08T14:44:25.723Z,31.00
2023-09-08T14:46:53.084Z,30.90
2023-09-08T14:49:19.786Z,30.80
2023-09-08T14:51:46.402Z,30.60
2023-09-08T14:54:13.025Z,30.60
2023-09-08T14:56:39.633Z,30.50
2023-09-08T14:59:06.241Z,30.50
2023-09-08T15:01:33.035Z,30.30
2023-09-08T15:03:59.817Z,30.20
2023-09-08T15:06:28.583Z,30.10
2023-09-08T15:08:55.587Z,30.00
2023-09-08T15:11:22.342Z,29.90
2023-09-08T15:13:49.037Z,29.80
2023-09-08T15:16:15.996Z,29.80
2023-09-08T15:18:43.383Z,29.80
2023-09-08T15:21:10.246Z,29.60
2023-09-08T15:23:37.325Z,29.60
2023-09-08T15:26:04.459Z,29.60
2023-09-08T15:28:31.532Z,29.60
2023-09-08T15:30:58.349Z,29.50
2023-09-08T15:33:25.216Z,29.50
2023-09-08T15:35:57.902Z,29.40
2023-09-08T15:38:24.582Z,29.40
2023-09-08T15:41:09.563Z,29.30
2023-09-08T15:43:38.681Z,29.30
2023-09-08T15:46:09.279Z,29.20
2023-09-08T15:48:37.517Z,29.20
2023-09-08T15:51:04.800Z,29.10
2023-09-08T15:53:32.718Z,29.20
2023-09-08T15:55:59.491Z,29.10
2023-09-08T15:58:26.213Z,29.10
2023-09-08T16:00:53.247Z,29.10
2023-09-08T16:03:20.120Z,29.00
2023-09-08T16:05:46.765Z,29.00
2023-09-08T16:08:13.408Z,29.00
2023-09-08T16:10:39.989Z,29.00
2023-09-08T16:13:06.622Z,28.90
2023-09-08T16:15:33.290Z,28.90
2023-09-08T16:18:04.246Z,28.80
2023-09-08T16:20:30.896Z,28.80
2023-09-08T16:22:59.151Z,28.80
2023-09-08T16:25:25.844Z,28.80
2023-09-08T16:27:52.475Z,28.70
2023-09-08T16:30:19.060Z,28.70
2023-09-08T16:32:45.723Z,28.70
2023-09-08T16:35:12.841Z,28.60
2023-09-08T16:37:39.443Z,28.60
2023-09-08T16:40:06.711Z,28.50
2023-09-08T16:42:33.375Z,28.50
2023-09-08T16:45:00.016Z,28.40
2023-09-08T16:47:26.911Z,28.50
2023-09-08T16:49:54.760Z,28.40
2023-09-08T16:52:23.198Z,28.40
2023-09-08T16:54:50.339Z,28.30
2023-09-08T16:57:18.181Z,28.10
2023-09-08T16:59:45.060Z,27.90
2023-09-08T17:02:11.780Z,27.70
2023-09-08T17:04:38.762Z,27.60
2023-09-08T17:07:05.590Z,27.40
2023-09-08T17:09:32.345Z,27.30
2023-09-08T17:11:59.053Z,27.20
2023-09-08T17:14:25.725Z,27.10
2023-09-08T17:16:52.376Z,27.00
2023-09-08T17:19:19.138Z,26.80
2023-09-08T17:21:46.214Z,26.60
2023-09-08T17:24:13.607Z,26.40
2023-09-08T17:26:40.270Z,26.20
2023-09-08T17:29:08.692Z,26.10
2023-09-08T17:31:35.347Z,25.80
2023-09-08T17:34:02.050Z,25.70
2023-09-08T17:36:28.859Z,25.40
2023-09-08T17:38:55.502Z,25.20
2023-09-08T17:41:22.079Z,25.00
2023-09-08T17:43:54.687Z,24.80
2023-09-08T17:46:21.596Z,24.60
2023-09-08T17:48:48.503Z,24.50
2023-09-08T17:51:15.133Z,24.30
2023-09-08T17:53:41.723Z,24.10
2023-09-08T17:56:08.327Z,24.00
2023-09-08T17:58:34.923Z,23.90
2023-09-08T18:01:01.660Z,23.70
2023-09-08T18:03:29.526Z,23.50
2023-09-08T18:05:56.454Z,23.40
2023-09-08T18:08:23.111Z,23.30
2023-09-08T18:10:49.740Z,23.10
2023-09-08T18:13:16.350Z,23.00
2023-09-08T18:15:43.121Z,22.90
2023-09-08T18:18:10.241Z,22.80
2023-09-08T18:20:36.941Z,22.70
2023-09-08T18:23:03.648Z,22.60
2023-09-08T18:25:30.289Z,22.50
2023-09-08T18:27:56.925Z,22.40
2023-09-08T18:30:23.673Z,22.30
2023-09-08T18:32:50.269Z,22.20
2023-09-08T18:35:16.989Z,22.20
2023-09-08T18:37:43.699Z,22.10
2023-09-08T18:40:11.670Z,22.00
2023-09-08T18:42:39.776Z,21.90
2023-09-08T18:45:06.983Z,21.80
2023-09-08T18:47:33.793Z,21.80
2023-09-08T18:50:00.462Z,21.70
2023-09-08T18:52:27.235Z,21.60
2023-09-08T18:54:53.863Z,21.60
2023-09-08T18:57:20.479Z,21.50
2023-09-08T18:59:49.748Z,21.40
2023-09-08T19:02:16.356Z,21.40
2023-09-08T19:04:43.138Z,21.30
2023-09-08T19:07:09.844Z,21.20
2023-09-08T19:09:36.600Z,21.20
2023-09-08T19:12:04.048Z,21.10
2023-09-08T19:14:30.775Z,21.10
2023-09-08T19:17:01.538Z,21.00
2023-09-08T19:19:28.324Z,20.90
2023-09-08T19:21:55.160Z,20.90
2023-09-08T19:24:24.277Z,20.80
2023-09-08T19:26:51.103Z,20.80
2023-09-08T19:29:19.799Z,20.70
2023-09-08T19:31:46.438Z,20.70
2023-09-08T19:34:13.024Z,20.60
2023-09-08T19:36:40.172Z,20.60
2023-09-08T19:39:08.048Z,20.50
2023-09-08T19:41:34.947Z,20.50
2023-09-08T19:44:01.523Z,20.40
2023-09-08T19:46:28.148Z,20.30
2023-09-08T19:48:55.328Z,20.30
2023-09-08T19:51:22.975Z,20.30
2023-09-08T19:53:49.915Z,20.30
2023-09-08T19:56:16.595Z,20.20
2023-09-08T19:58:43.493Z,20.20
2023-09-08T20:01:14.741Z,20.20
2023-09-08T20:03:41.756Z,20.20
2023-09-08T20:06:08.603Z,20.30
2023-09-08T20:08:35.241Z,20.20
2023-09-08T20:11:01.829Z,20.20
2023-09-08T20:13:28.472Z,20.20
2023-09-08T20:16:01.628Z,20.20
2023-09-08T20:18:28.597Z,20.20
2023-09-08T20:20:56.317Z,20.10
2023-09-08T20:23:24.039Z,20.10
2023-09-08T20:25:50.714Z,20.10
2023-09-08T20:28:17.299Z,20.00
2023-09-08T20:30:43.936Z,19.90
2023-09-08T20:33:12.402Z,19.90
2023-09-08T20:35:40.077Z,19.80
2023-09-08T20:38:06.826Z,19.80
2023-09-08T20:40:33.470Z,19.70
2023-09-08T20:43:00.106Z,19.60
2023-09-08T20:45:26.808Z,19.50
2023-09-08T20:47:54.491Z,19.50
2023-09-08T20:50:23.980Z,19.40
2023-09-08T20:52:50.630Z,19.40
2023-09-08T20:55:17.236Z,19.30
2023-09-08T20:57:43.878Z,19.30
2023-09-08T21:00:11.280Z,19.30
2023-09-08T21:02:37.957Z,19.30
2023-09-08T21:05:05.242Z,19.20
2023-09-08T21:07:31.905Z,19.20
2023-09-08T21:09:58.514Z,19.10
2023-09-08T21:12:25.172Z,19.10
2023-09-08T21:14:51.796Z,19.00
2023-09-08T21:17:18.641Z,19.00
2023-09-08T21:19:45.416Z,18.90
2023-09-08T21:22:12.033Z,18.90
2023-09-08T21:24:38.689Z,18.80
2023-09-08T21:27:05.346Z,18.80
2023-09-08T21:29:32.105Z,18.70
2023-09-08T21:31:58.792Z,18.70
2023-09-08T21:34:25.951Z,18.60
2023-09-08T21:36:54.183Z,18.60
2023-09-08T21:39:21.384Z,18.60
2023-09-08T21:41:48.101Z,18.60
2023-09-08T21:44:14.759Z,18.50
2023-09-08T21:46:41.383Z,18.50
2023-09-08T21:49:10.009Z,18.40
2023-09-08T21:51:36.904Z,18.40
2023-09-08T21:54:04.529Z,18.40
2023-09-08T21:56:31.401Z,18.30
2023-09-08T21:58:58.038Z,18.30
2023-09-08T22:01:24.799Z,18.20
2023-09-08T22:03:51.723Z,18.20
2023-09-08T22:06:18.475Z,18.20
2023-09-08T22:08:47.279Z,18.20
2023-09-08T22:11:14.015Z,18.10
2023-09-08T22:13:40.921Z,18.10
2023-09-08T22:16:07.963Z,18.10
2023-09-08T22:18:35.505Z,18.00
2023-09-08T22:21:02.298Z,18.00
2023-09-08T22:23:29.055Z,18.00
2023-09-08T22:25:55.659Z,17.90
2023-09-08T22:28:22.345Z,17.90
2023-09-08T22:30:48.953Z,17.90
2023-09-08T22:33:15.647Z,17.90
2023-09-08T22:35:42.355Z,17.80
2023-09-08T22:38:09.658Z,17.80
2023-09-08T22:40:36.344Z,17.70
2023-09-08T22:43:03.699Z,17.80
2023-09-08T22:45:30.408Z,17.70
2023-09-08T22:47:57.044Z,17.70
2023-09-08T22:50:24.282Z,17.70
2023-09-08T22:52:50.940Z,17.70
2023-09-08T22:55:25.949Z,17.60
2023-09-08T22:57:54.291Z,17.60
2023-09-08T23:00:22.424Z,17.60
2023-09-08T23:02:49.149Z,17.60
2023-09-08T23:05:16.018Z,17.50
2023-09-08T23:07:45.858Z,17.50
2023-09-08T23:10:12.924Z,17.40
2023-09-08T23:12:39.963Z,17.40
2023-09-08T23:15:07.696Z,17.40
2023-09-08T23:17:34.616Z,17.30
2023-09-08T23:20:01.489Z,17.30
2023-09-08T23:22:28.180Z,17.30
2023-09-08T23:24:54.779Z,17.30
2023-09-08T23:27:21.403Z,17.30
2023-09-08T23:29:48.159Z,17.20
2023-09-08T23:32:15.942Z,17.20
2023-09-08T23:34:42.582Z,17.20
2023-09-08T23:37:09.258Z,17.10
2023-09-08T23:39:35.968Z,17.10
2023-09-08T23:42:03.309Z,17.10
2023-09-08T23:44:29.985Z,17.00
2023-09-08T23:46:56.650Z,17.00
2023-09-08T23:49:23.763Z,17.00
2023-09-08T23:51:50.451Z,17.00
2023-09-08T23:54:19.158Z,17.00
2023-09-08T23:56:45.912Z,16.90
2023-09-08T23:59:13.162Z,16.90
